sensor_id;sensor_type;location;lat;lon;timestamp;pressure;altitude;pressure_sealevel;temperature;humidity
37648;BME280;23490;53.656;10.076;2023-02-16T00:00:20;99851.72;;;-145.95;100.00
37648;BME280;23490;53.656;10.076;2023-02-16T00:02:45;99839.34;;;-145.95;100.00
37648;BME280;23490;53.656;10.076;2023-02-16T00:05:27;99864.13;;;-145.95;100.00
37648;BME280;23490;53.656;10.076;2023-02-16T00:07:54;99841.41;;;-145.95;100.00
37648;BME280;23490;53.656;10.076;2023-02-16T00:10:21;99880.66;;;-145.95;100.00
37648;BME280;23490;53.656;10.076;2023-02-16T00:12:46;99868.25;;;-145.95;100.00
37648;BME280;23490;53.656;10.076;2023-02-16T00:15:31;99860.00;;;-145.95;100.00
37648;BME280;23490;53.656;10.076;2023-02-16T00:17:58;99880.66;;;-145.95;100.00
37648;BME280;23490;53.656;10.076;2023-02-16T00:20:25;99890.97;;;-145.95;100.00
37648;BME280;23490;53.656;10.076;2023-02-16T00:22:51;99901.31;;;-145.95;100.00
37648;BME280;23490;53.656;10.076;2023-02-16T00:25:17;99847.59;;;-145.95;100.00
37648;BME280;23490;53.656;10.076;2023-02-16T00:27:43;99868.25;;;-145.95;100.00
37648;BME280;23490;53.656;10.076;2023-02-16T00:30:15;99847.59;;;-145.95;100.00
37648;BME280;23490;53.656;10.076;2023-02-16T00:32:41;99862.06;;;-145.95;100.00
37648;BME280;23490;53.656;10.076;2023-02-16T00:35:15;99888.91;;;-145.95;100.00
37648;BME280;23490;53.656;10.076;2023-02-16T00:37:40;99862.06;;;-145.95;100.00
37648;BME280;23490;53.656;10.076;2023-02-16T00:40:06;99847.59;;;-145.95;100.00
37648;BME280;23490;53.656;10.076;2023-02-16T00:42:32;99876.50;;;-145.95;100.00
37648;BME280;23490;53.656;10.076;2023-02-16T00:44:59;99864.13;;;-145.95;100.00
37648;BME280;23490;53.656;10.076;2023-02-16T00:47:35;99864.13;;;-145.95;100.00
37648;BME280;23490;53.656;10.076;2023-02-16T00:50:05;99874.44;;;-145.95;100.00
37648;BME280;23490;53.656;10.076;2023-02-16T00:52:38;99884.78;;;-145.95;100.00
37648;BME280;23490;53.656;10.076;2023-02-16T00:55:09;99878.56;;;-145.95;100.00
37648;BME280;23490;53.656;10.076;2023-02-16T00:57:54;99868.25;;;-145.95;100.00
37648;BME280;23490;53.656;10.076;2023-02-16T01:00:23;99855.84;;;-145.95;100.00
37648;BME280;23490;53.656;10.076;2023-02-16T01:02:50;99853.78;;;-145.95;100.00
37648;BME280;23490;53.656;10.076;2023-02-16T01:05:16;99864.13;;;-145.95;100.00
37648;BME280;23490;53.656;10.076;2023-02-16T01:07:42;99860.00;;;-145.95;100.00
37648;BME280;23490;53.656;10.076;2023-02-16T01:10:27;99897.16;;;-145.95;100.00
37648;BME280;23490;53.656;10.076;2023-02-16T01:13:13;99864.13;;;-145.95;100.00
37648;BME280;23490;53.656;10.076;2023-02-16T01:15:39;99855.84;;;-145.95;100.00
37648;BME280;23490;53.656;10.076;2023-02-16T01:18:05;99890.97;;;-145.95;100.00
37648;BME280;23490;53.656;10.076;2023-02-16T01:20:31;99839.34;;;-145.95;100.00
37648;BME280;23490;53.656;10.076;2023-02-16T01:22:57;99893.03;;;-145.95;100.00
37648;BME280;23490;53.656;10.076;2023-02-16T01:25:22;99888.91;;;-145.95;100.00
37648;BME280;23490;53.656;10.076;2023-02-16T01:27:48;99903.38;;;-145.95;100.00
37648;BME280;23490;53.656;10.076;2023-02-16T01:30:22;99895.09;;;-145.95;100.00
37648;BME280;23490;53.656;10.076;2023-02-16T01:32:48;99909.56;;;-145.95;100.00
37648;BME280;23490;53.656;10.076;2023-02-16T01:35:21;99890.97;;;-145.95;100.00
37648;BME280;23490;53.656;10.076;2023-02-16T01:37:48;99938.47;;;-145.95;100.00
37648;BME280;23490;53.656;10.076;2023-02-16T01:40:25;99905.44;;;-145.95;100.00
37648;BME280;23490;53.656;10.076;2023-02-16T01:43:19;99876.50;;;-145.95;100.00
37648;BME280;23490;53.656;10.076;2023-02-16T01:46:00;99901.31;;;-145.95;100.00
37648;BME280;23490;53.656;10.076;2023-02-16T01:48:29;99909.56;;;-145.95;100.00
37648;BME280;23490;53.656;10.076;2023-02-16T01:53:50;99880.66;;;-145.95;100.00
37648;BME280;23490;53.656;10.076;2023-02-16T01:56:27;99915.75;;;-145.95;100.00
37648;BME280;23490;53.656;10.076;2023-02-16T01:59:00;99905.44;;;-145.95;100.00
37648;BME280;23490;53.656;10.076;2023-02-16T02:01:32;99874.44;;;-145.95;100.00
37648;BME280;23490;53.656;10.076;2023-02-16T02:04:00;99938.47;;;-145.95;100.00
37648;BME280;23490;53.656;10.076;2023-02-16T02:06:45;99917.81;;;-145.95;100.00
37648;BME280;23490;53.656;10.076;2023-02-16T02:09:19;99909.56;;;-145.95;100.00
37648;BME280;23490;53.656;10.076;2023-02-16T02:11:53;99876.50;;;-145.95;100.00
37648;BME280;23490;53.656;10.076;2023-02-16T02:14:24;99930.22;;;-145.95;100.00
37648;BME280;23490;53.656;10.076;2023-02-16T02:17:03;99897.16;;;-145.95;100.00
37648;BME280;23490;53.656;10.076;2023-02-16T02:19:31;99913.69;;;-145.95;100.00
37648;BME280;23490;53.656;10.076;2023-02-16T02:22:30;99880.66;;;-145.95;100.00
37648;BME280;23490;53.656;10.076;2023-02-16T02:25:44;99893.03;;;-145.95;100.00
37648;BME280;23490;53.656;10.076;2023-02-16T02:28:21;99872.38;;;-145.95;100.00
37648;BME280;23490;53.656;10.076;2023-02-16T02:33:33;99897.16;;;-145.95;100.00
37648;BME280;23490;53.656;10.076;2023-02-16T02:36:16;99872.38;;;-145.95;100.00
37648;BME280;23490;53.656;10.076;2023-02-16T02:41:58;99876.50;;;-145.95;100.00
37648;BME280;23490;53.656;10.076;2023-02-16T02:44:38;99897.16;;;-145.95;100.00
37648;BME280;23490;53.656;10.076;2023-02-16T02:47:06;99905.44;;;-145.95;100.00
37648;BME280;23490;53.656;10.076;2023-02-16T02:49:31;99895.09;;;-145.95;100.00
37648;BME280;23490;53.656;10.076;2023-02-16T02:51:57;99843.47;;;-145.95;100.00
37648;BME280;23490;53.656;10.076;2023-02-16T02:54:27;99855.84;;;-145.95;100.00
37648;BME280;23490;53.656;10.076;2023-02-16T02:57:20;99855.84;;;-145.95;100.00
37648;BME280;23490;53.656;10.076;2023-02-16T03:00:14;99872.38;;;-145.95;100.00
37648;BME280;23490;53.656;10.076;2023-02-16T03:03:05;99860.00;;;-145.95;100.00
37648;BME280;23490;53.656;10.076;2023-02-16T03:05:33;99829.00;;;-145.95;100.00
37648;BME280;23490;53.656;10.076;2023-02-16T03:08:05;99841.41;;;-145.95;100.00
37648;BME280;23490;53.656;10.076;2023-02-16T03:10:41;99810.41;;;-145.95;100.00
37648;BME280;23490;53.656;10.076;2023-02-16T03:13:30;99804.22;;;-145.95;100.00
37648;BME280;23490;53.656;10.076;2023-02-16T03:16:01;99826.94;;;-145.95;100.00
37648;BME280;23490;53.656;10.076;2023-02-16T03:18:28;99837.28;;;-145.95;100.00
37648;BME280;23490;53.656;10.076;2023-02-16T03:21:14;99855.84;;;-145.95;100.00
37648;BME280;23490;53.656;10.076;2023-02-16T03:24:00;99835.19;;;-145.95;100.00
37648;BME280;23490;53.656;10.076;2023-02-16T03:26:48;99847.59;;;-145.95;100.00
37648;BME280;23490;53.656;10.076;2023-02-16T03:29:34;99886.84;;;-145.95;100.00
37648;BME280;23490;53.656;10.076;2023-02-16T03:32:00;99847.59;;;-145.95;100.00
37648;BME280;23490;53.656;10.076;2023-02-16T03:34:26;99822.81;;;-145.95;100.00
37648;BME280;23490;53.656;10.076;2023-02-16T03:36:54;99831.06;;;-145.95;100.00
37648;BME280;23490;53.656;10.076;2023-02-16T03:39:26;99818.69;;;-145.95;100.00
37648;BME280;23490;53.656;10.076;2023-02-16T03:41:54;99847.59;;;-145.95;100.00
37648;BME280;23490;53.656;10.076;2023-02-16T03:44:21;99818.69;;;-145.95;100.00
37648;BME280;23490;53.656;10.076;2023-02-16T03:46:47;99831.06;;;-145.95;100.00
37648;BME280;23490;53.656;10.076;2023-02-16T03:49:14;99824.88;;;-145.95;100.00
37648;BME280;23490;53.656;10.076;2023-02-16T03:51:39;99860.00;;;-145.95;100.00
37648;BME280;23490;53.656;10.076;2023-02-16T03:54:05;99826.94;;;-145.95;100.00
37648;BME280;23490;53.656;10.076;2023-02-16T03:56:30;99851.72;;;-145.95;100.00
37648;BME280;23490;53.656;10.076;2023-02-16T03:58:56;99835.19;;;-145.95;100.00
37648;BME280;23490;53.656;10.076;2023-02-16T04:01:21;99826.94;;;-145.95;100.00
37648;BME280;23490;53.656;10.076;2023-02-16T04:03:46;99826.94;;;-145.95;100.00
37648;BME280;23490;53.656;10.076;2023-02-16T04:06:12;99822.81;;;-145.95;100.00
37648;BME280;23490;53.656;10.076;2023-02-16T04:08:38;99814.56;;;-145.95;100.00
37648;BME280;23490;53.656;10.076;2023-02-16T04:11:04;99835.19;;;-145.95;100.00
37648;BME280;23490;53.656;10.076;2023-02-16T04:13:49;99855.84;;;-145.95;100.00
37648;BME280;23490;53.656;10.076;2023-02-16T04:16:14;99860.00;;;-145.95;100.00
37648;BME280;23490;53.656;10.076;2023-02-16T04:18:40;99835.19;;;-145.95;100.00
37648;BME280;23490;53.656;10.076;2023-02-16T04:21:05;99851.72;;;-145.95;100.00
37648;BME280;23490;53.656;10.076;2023-02-16T04:23:31;99864.13;;;-145.95;100.00
37648;BME280;23490;53.656;10.076;2023-02-16T04:25:56;99847.59;;;-145.95;100.00
37648;BME280;23490;53.656;10.076;2023-02-16T04:28:21;99841.41;;;-145.95;100.00
37648;BME280;23490;53.656;10.076;2023-02-16T04:30:47;99831.06;;;-145.95;100.00
37648;BME280;23490;53.656;10.076;2023-02-16T04:33:12;99876.50;;;-145.95;100.00
37648;BME280;23490;53.656;10.076;2023-02-16T04:35:37;99835.19;;;-145.95;100.00
37648;BME280;23490;53.656;10.076;2023-02-16T04:38:03;99864.13;;;-145.95;100.00
37648;BME280;23490;53.656;10.076;2023-02-16T04:40:28;99913.69;;;-145.95;100.00
37648;BME280;23490;53.656;10.076;2023-02-16T04:42:53;99893.03;;;-145.95;100.00
37648;BME280;23490;53.656;10.076;2023-02-16T04:45:19;99876.50;;;-145.95;100.00
37648;BME280;23490;53.656;10.076;2023-02-16T04:47:44;99847.59;;;-145.95;100.00
37648;BME280;23490;53.656;10.076;2023-02-16T04:50:10;99868.25;;;-145.95;100.00
37648;BME280;23490;53.656;10.076;2023-02-16T04:52:36;99851.72;;;-145.95;100.00
37648;BME280;23490;53.656;10.076;2023-02-16T04:55:03;99893.03;;;-145.95;100.00
37648;BME280;23490;53.656;10.076;2023-02-16T04:57:29;99872.38;;;-145.95;100.00
37648;BME280;23490;53.656;10.076;2023-02-16T04:59:55;99860.00;;;-145.95;100.00
37648;BME280;23490;53.656;10.076;2023-02-16T05:02:20;99868.25;;;-145.95;100.00
37648;BME280;23490;53.656;10.076;2023-02-16T05:04:47;99851.72;;;-145.95;100.00
37648;BME280;23490;53.656;10.076;2023-02-16T05:07:12;99855.84;;;-145.95;100.00
37648;BME280;23490;53.656;10.076;2023-02-16T05:09:38;99864.13;;;-145.95;100.00
37648;BME280;23490;53.656;10.076;2023-02-16T05:12:04;99839.34;;;-145.95;100.00
37648;BME280;23490;53.656;10.076;2023-02-16T05:14:48;99857.94;;;-145.95;100.00
37648;BME280;23490;53.656;10.076;2023-02-16T05:17:22;99837.28;;;-145.95;100.00
37648;BME280;23490;53.656;10.076;2023-02-16T05:19:51;99810.41;;;-145.95;100.00
37648;BME280;23490;53.656;10.076;2023-02-16T05:22:17;99831.06;;;-145.95;100.00
37648;BME280;23490;53.656;10.076;2023-02-16T05:24:43;99864.13;;;-145.95;100.00
37648;BME280;23490;53.656;10.076;2023-02-16T05:27:35;99839.34;;;-145.95;100.00
37648;BME280;23490;53.656;10.076;2023-02-16T05:30:01;99839.34;;;-145.95;100.00
37648;BME280;23490;53.656;10.076;2023-02-16T05:32:26;99816.63;;;-145.95;100.00
37648;BME280;23490;53.656;10.076;2023-02-16T05:34:52;99822.81;;;-145.95;100.00
37648;BME280;23490;53.656;10.076;2023-02-16T05:37:17;99843.47;;;-145.95;100.00
37648;BME280;23490;53.656;10.076;2023-02-16T05:39:43;99810.41;;;-145.95;100.00
37648;BME280;23490;53.656;10.076;2023-02-16T05:42:09;99793.91;;;-145.95;100.00
37648;BME280;23490;53.656;10.076;2023-02-16T05:44:36;99831.06;;;-145.95;100.00
37648;BME280;23490;53.656;10.076;2023-02-16T05:47:03;99789.75;;;-145.95;100.00
37648;BME280;23490;53.656;10.076;2023-02-16T05:49:28;99785.63;;;-145.95;100.00
37648;BME280;23490;53.656;10.076;2023-02-16T05:51:54;99839.34;;;-145.95;100.00
37648;BME280;23490;53.656;10.076;2023-02-16T05:54:19;99810.41;;;-145.95;100.00
37648;BME280;23490;53.656;10.076;2023-02-16T05:56:46;99818.69;;;-145.95;100.00
37648;BME280;23490;53.656;10.076;2023-02-16T05:59:13;99802.16;;;-145.95;100.00
37648;BME280;23490;53.656;10.076;2023-02-16T06:01:40;99762.91;;;-145.95;100.00
37648;BME280;23490;53.656;10.076;2023-02-16T06:04:08;99793.91;;;-145.95;100.00
37648;BME280;23490;53.656;10.076;2023-02-16T06:06:35;99798.03;;;-145.95;100.00
37648;BME280;23490;53.656;10.076;2023-02-16T06:09:00;99798.03;;;-145.95;100.00
37648;BME280;23490;53.656;10.076;2023-02-16T06:11:26;99822.81;;;-145.95;100.00
37648;BME280;23490;53.656;10.076;2023-02-16T06:14:08;99814.56;;;-145.95;100.00
37648;BME280;23490;53.656;10.076;2023-02-16T06:16:35;99831.06;;;-145.95;100.00
37648;BME280;23490;53.656;10.076;2023-02-16T06:19:02;99789.75;;;-145.95;100.00
37648;BME280;23490;53.656;10.076;2023-02-16T06:21:28;99754.66;;;-145.95;100.00
37648;BME280;23490;53.656;10.076;2023-02-16T06:23:54;99789.75;;;-145.95;100.00
37648;BME280;23490;53.656;10.076;2023-02-16T06:26:19;99785.63;;;-145.95;100.00
37648;BME280;23490;53.656;10.076;2023-02-16T06:28:45;99777.38;;;-145.95;100.00
37648;BME280;23490;53.656;10.076;2023-02-16T06:31:10;99773.25;;;-145.95;100.00
37648;BME280;23490;53.656;10.076;2023-02-16T06:33:36;99785.63;;;-145.95;100.00
37648;BME280;23490;53.656;10.076;2023-02-16T06:36:02;99777.38;;;-145.95;100.00
37648;BME280;23490;53.656;10.076;2023-02-16T06:38:28;99798.03;;;-145.95;100.00
37648;BME280;23490;53.656;10.076;2023-02-16T06:40:53;99756.72;;;-145.95;100.00
37648;BME280;23490;53.656;10.076;2023-02-16T06:43:19;99793.91;;;-145.95;100.00
37648;BME280;23490;53.656;10.076;2023-02-16T06:45:48;99793.91;;;-145.95;100.00
37648;BME280;23490;53.656;10.076;2023-02-16T06:48:13;99740.19;;;-145.95;100.00
37648;BME280;23490;53.656;10.076;2023-02-16T06:50:39;99727.81;;;-145.95;100.00
37648;BME280;23490;53.656;10.076;2023-02-16T06:53:04;99777.38;;;-145.95;100.00
37648;BME280;23490;53.656;10.076;2023-02-16T06:55:30;99740.19;;;-145.95;100.00
37648;BME280;23490;53.656;10.076;2023-02-16T06:57:59;99740.19;;;-145.95;100.00
37648;BME280;23490;53.656;10.076;2023-02-16T07:00:24;99748.44;;;-145.95;100.00
37648;BME280;23490;53.656;10.076;2023-02-16T07:02:49;99707.16;;;-145.95;100.00
37648;BME280;23490;53.656;10.076;2023-02-16T07:05:15;99719.53;;;-145.95;100.00
37648;BME280;23490;53.656;10.076;2023-02-16T07:07:42;99740.19;;;-145.95;100.00
37648;BME280;23490;53.656;10.076;2023-02-16T07:10:08;99752.59;;;-145.95;100.00
37648;BME280;23490;53.656;10.076;2023-02-16T07:12:34;99707.16;;;-145.95;100.00
37648;BME280;23490;53.656;10.076;2023-02-16T07:14:59;99767.03;;;-145.95;100.00
37648;BME280;23490;53.656;10.076;2023-02-16T07:17:25;99764.97;;;-145.95;100.00
37648;BME280;23490;53.656;10.076;2023-02-16T07:19:50;99723.66;;;-145.95;100.00
37648;BME280;23490;53.656;10.076;2023-02-16T07:22:15;99719.53;;;-145.95;100.00
37648;BME280;23490;53.656;10.076;2023-02-16T07:24:41;99705.09;;;-145.95;100.00
37648;BME280;23490;53.656;10.076;2023-02-16T07:27:07;99694.75;;;-145.95;100.00
37648;BME280;23490;53.656;10.076;2023-02-16T07:29:32;99676.16;;;-145.95;100.00
37648;BME280;23490;53.656;10.076;2023-02-16T07:31:58;99698.88;;;-145.95;100.00
37648;BME280;23490;53.656;10.076;2023-02-16T07:34:23;99707.16;;;-145.95;100.00
37648;BME280;23490;53.656;10.076;2023-02-16T07:36:49;99674.09;;;-145.95;100.00
37648;BME280;23490;53.656;10.076;2023-02-16T07:39:14;99698.88;;;-145.95;100.00
37648;BME280;23490;53.656;10.076;2023-02-16T07:41:40;99676.16;;;-145.95;100.00
37648;BME280;23490;53.656;10.076;2023-02-16T07:44:05;99678.22;;;-145.95;100.00
37648;BME280;23490;53.656;10.076;2023-02-16T07:46:30;99667.91;;;-145.95;100.00
37648;BME280;23490;53.656;10.076;2023-02-16T07:48:56;99678.22;;;-145.95;100.00
37648;BME280;23490;53.656;10.076;2023-02-16T07:51:26;99665.84;;;-145.95;100.00
37648;BME280;23490;53.656;10.076;2023-02-16T07:53:53;99624.53;;;-145.95;100.00
37648;BME280;23490;53.656;10.076;2023-02-16T07:56:26;99655.50;;;-145.95;100.00
37648;BME280;23490;53.656;10.076;2023-02-16T07:58:53;99630.72;;;-145.95;100.00
37648;BME280;23490;53.656;10.076;2023-02-16T08:01:19;99669.97;;;-145.95;100.00
37648;BME280;23490;53.656;10.076;2023-02-16T08:03:47;99620.41;;;-145.95;100.00
37648;BME280;23490;53.656;10.076;2023-02-16T08:06:13;99649.31;;;-145.95;100.00
37648;BME280;23490;53.656;10.076;2023-02-16T08:08:39;99608.00;;;-145.95;100.00
37648;BME280;23490;53.656;10.076;2023-02-16T08:11:13;99591.50;;;-145.95;99.55
37648;BME280;23490;53.656;10.076;2023-02-16T08:13:39;99620.41;;;-145.95;100.00
37648;BME280;23490;53.656;10.076;2023-02-16T08:16:09;99587.34;;;-145.95;99.25
37648;BME280;23490;53.656;10.076;2023-02-16T08:18:36;99620.41;;;-145.95;98.32
37648;BME280;23490;53.656;10.076;2023-02-16T08:21:12;99612.16;;;-145.95;98.27
37648;BME280;23490;53.656;10.076;2023-02-16T08:23:43;99583.22;;;-145.95;96.91
37648;BME280;23490;53.656;10.076;2023-02-16T08:26:12;99595.63;;;-145.95;97.44
37648;BME280;23490;53.656;10.076;2023-02-16T08:28:38;99570.84;;;-145.95;96.69
37648;BME280;23490;53.656;10.076;2023-02-16T08:31:11;99546.06;;;-145.95;96.74
37648;BME280;23490;53.656;10.076;2023-02-16T08:33:38;99579.09;;;-145.95;96.30
37648;BME280;23490;53.656;10.076;2023-02-16T08:36:04;99564.63;;;-145.95;96.91
37648;BME280;23490;53.656;10.076;2023-02-16T08:38:34;99546.06;;;-145.95;96.99
37648;BME280;23490;53.656;10.076;2023-02-16T08:40:59;99537.78;;;-145.95;97.52
37648;BME280;23490;53.656;10.076;2023-02-16T08:43:24;99510.94;;;-145.95;96.53
37648;BME280;23490;53.656;10.076;2023-02-16T08:45:51;99550.19;;;-145.95;95.69
37648;BME280;23490;53.656;10.076;2023-02-16T08:48:16;99521.28;;;-145.95;95.36
37648;BME280;23490;53.656;10.076;2023-02-16T08:50:46;99506.81;;;-145.95;95.22
37648;BME280;23490;53.656;10.076;2023-02-16T08:53:21;99546.06;;;-145.95;93.91
37648;BME280;23490;53.656;10.076;2023-02-16T08:55:54;99521.28;;;-145.95;93.57
37648;BME280;23490;53.656;10.076;2023-02-16T08:58:21;99521.28;;;-145.95;92.88
37648;BME280;23490;53.656;10.076;2023-02-16T09:00:46;99523.34;;;-145.95;93.45
37648;BME280;23490;53.656;10.076;2023-02-16T09:03:12;99550.19;;;-145.95;93.44
37648;BME280;23490;53.656;10.076;2023-02-16T09:05:38;99519.22;;;-145.95;93.84
37648;BME280;23490;53.656;10.076;2023-02-16T09:08:03;99513.00;;;-145.95;94.11
37648;BME280;23490;53.656;10.076;2023-02-16T09:10:28;99513.00;;;-145.95;93.49
37648;BME280;23490;53.656;10.076;2023-02-16T09:12:54;99515.06;;;-145.95;92.69
37648;BME280;23490;53.656;10.076;2023-02-16T09:15:20;99488.22;;;-145.95;93.55
37648;BME280;23490;53.656;10.076;2023-02-16T09:17:46;99484.09;;;-145.95;93.91
37648;BME280;23490;53.656;10.076;2023-02-16T09:20:12;99519.22;;;-145.95;93.82
37648;BME280;23490;53.656;10.076;2023-02-16T09:22:37;99533.66;;;-145.95;93.57
37648;BME280;23490;53.656;10.076;2023-02-16T09:25:04;99531.59;;;-145.95;93.28
37648;BME280;23490;53.656;10.076;2023-02-16T09:27:31;99513.00;;;-145.95;94.08
37648;BME280;23490;53.656;10.076;2023-02-16T09:29:56;99513.00;;;-145.95;92.87
37648;BME280;23490;53.656;10.076;2023-02-16T09:32:27;99533.66;;;-145.95;93.45
37648;BME280;23490;53.656;10.076;2023-02-16T09:34:52;99558.44;;;-145.95;93.50
37648;BME280;23490;53.656;10.076;2023-02-16T09:37:17;99490.28;;;-145.95;94.19
37648;BME280;23490;53.656;10.076;2023-02-16T09:39:43;99513.00;;;-145.95;94.21
37648;BME280;23490;53.656;10.076;2023-02-16T09:42:38;99519.22;;;-145.95;93.24
37648;BME280;23490;53.656;10.076;2023-02-16T09:45:16;99484.09;;;-145.95;93.94
37648;BME280;23490;53.656;10.076;2023-02-16T09:47:45;99529.53;;;-145.95;93.35
37648;BME280;23490;53.656;10.076;2023-02-16T09:50:15;99463.44;;;-145.95;93.78
37648;BME280;23490;53.656;10.076;2023-02-16T09:53:01;99475.84;;;-145.95;92.88
37648;BME280;23490;53.656;10.076;2023-02-16T09:55:49;99479.97;;;-145.95;92.78
37648;BME280;23490;53.656;10.076;2023-02-16T09:58:21;99544.00;;;-145.95;92.85
37648;BME280;23490;53.656;10.076;2023-02-16T10:00:51;99446.91;;;-145.95;92.88
37648;BME280;23490;53.656;10.076;2023-02-16T10:06:28;99455.19;;;-145.95;92.58
37648;BME280;23490;53.656;10.076;2023-02-16T10:09:01;99387.03;;;-145.95;92.23
37648;BME280;23490;53.656;10.076;2023-02-16T10:11:33;99409.75;;;-145.95;90.63
37648;BME280;23490;53.656;10.076;2023-02-16T10:19:32;99434.53;;;-145.95;93.15
37648;BME280;23490;53.656;10.076;2023-02-16T10:22:02;99471.69;;;-145.95;95.41
37648;BME280;23490;53.656;10.076;2023-02-16T10:24:38;99422.13;;;-145.95;94.88
37648;BME280;23490;53.656;10.076;2023-02-16T10:27:11;99451.06;;;-145.95;95.51
37648;BME280;23490;53.656;10.076;2023-02-16T10:29:38;99422.13;;;-145.95;95.63
37648;BME280;23490;53.656;10.076;2023-02-16T10:32:30;99471.69;;;-145.95;96.37
37648;BME280;23490;53.656;10.076;2023-02-16T10:35:22;99451.06;;;-145.95;96.64
37648;BME280;23490;53.656;10.076;2023-02-16T10:40:25;99428.34;;;-145.95;97.30
37648;BME280;23490;53.656;10.076;2023-02-16T10:43:12;99463.44;;;-145.95;97.71
37648;BME280;23490;53.656;10.076;2023-02-16T10:45:47;99453.13;;;-145.95;96.99
37648;BME280;23490;53.656;10.076;2023-02-16T10:48:14;99451.06;;;-145.95;96.62
37648;BME280;23490;53.656;10.076;2023-02-16T10:50:40;99451.06;;;-145.95;96.31
37648;BME280;23490;53.656;10.076;2023-02-16T10:53:16;99422.13;;;-145.95;97.85
37648;BME280;23490;53.656;10.076;2023-02-16T10:55:43;99467.56;;;-145.95;96.75
37648;BME280;23490;53.656;10.076;2023-02-16T10:58:16;99413.88;;;-145.95;95.95
37648;BME280;23490;53.656;10.076;2023-02-16T11:00:53;99415.94;;;-145.95;96.24
37648;BME280;23490;53.656;10.076;2023-02-16T11:03:24;99451.06;;;-145.95;96.03
37648;BME280;23490;53.656;10.076;2023-02-16T11:05:50;99415.94;;;-145.95;95.99
37648;BME280;23490;53.656;10.076;2023-02-16T11:08:17;99418.00;;;-145.95;94.73
37648;BME280;23490;53.656;10.076;2023-02-16T11:10:51;99397.34;;;-145.95;94.88
37648;BME280;23490;53.656;10.076;2023-02-16T11:13:33;99389.09;;;-145.95;95.29
37648;BME280;23490;53.656;10.076;2023-02-16T11:16:02;99389.09;;;-145.95;94.51
37648;BME280;23490;53.656;10.076;2023-02-16T11:18:44;99405.63;;;-145.95;94.76
37648;BME280;23490;53.656;10.076;2023-02-16T11:21:14;99376.69;;;-145.95;94.79
37648;BME280;23490;53.656;10.076;2023-02-16T11:23:42;99384.97;;;-145.95;93.93
37648;BME280;23490;53.656;10.076;2023-02-16T11:28:38;99376.69;;;-145.95;94.08
37648;BME280;23490;53.656;10.076;2023-02-16T11:31:18;99372.56;;;-145.95;94.32
37648;BME280;23490;53.656;10.076;2023-02-16T11:33:59;99349.84;;;-145.95;93.71
37648;BME280;23490;53.656;10.076;2023-02-16T11:36:34;99380.84;;;-145.95;93.68
37648;BME280;23490;53.656;10.076;2023-02-16T11:39:14;99347.78;;;-145.95;94.20
37648;BME280;23490;53.656;10.076;2023-02-16T11:41:48;99372.56;;;-145.95;94.55
37648;BME280;23490;53.656;10.076;2023-02-16T11:44:41;99360.19;;;-145.95;94.61
37648;BME280;23490;53.656;10.076;2023-02-16T11:47:33;99360.19;;;-145.95;94.03
37648;BME280;23490;53.656;10.076;2023-02-16T11:50:23;99366.38;;;-145.95;94.76
37648;BME280;23490;53.656;10.076;2023-02-16T11:52:55;99366.38;;;-145.95;94.17
37648;BME280;23490;53.656;10.076;2023-02-16T11:57:50;99364.31;;;-145.95;94.33
37648;BME280;23490;53.656;10.076;2023-02-16T12:00:22;99372.56;;;-145.95;94.06
37648;BME280;23490;53.656;10.076;2023-02-16T12:03:18;99368.44;;;-145.95;94.31
37648;BME280;23490;53.656;10.076;2023-02-16T12:16:25;99356.06;;;-145.95;94.47
37648;BME280;23490;53.656;10.076;2023-02-16T12:19:05;99343.66;;;-145.95;94.50
37648;BME280;23490;53.656;10.076;2023-02-16T12:21:38;99362.25;;;-145.95;95.30
37648;BME280;23490;53.656;10.076;2023-02-16T12:24:19;99333.34;;;-145.95;95.10
37648;BME280;23490;53.656;10.076;2023-02-16T12:26:57;99331.28;;;-145.95;95.84
37648;BME280;23490;53.656;10.076;2023-02-16T12:30:27;99422.13;;;-145.95;95.40
37648;BME280;23490;53.656;10.076;2023-02-16T12:32:53;99370.50;;;-145.95;95.79
37648;BME280;23490;53.656;10.076;2023-02-16T12:44:30;99343.66;;;-145.95;96.32
37648;BME280;23490;53.656;10.076;2023-02-16T12:47:01;99376.69;;;-145.95;97.04
37648;BME280;23490;53.656;10.076;2023-02-16T12:49:52;99415.94;;;-145.95;97.04
37648;BME280;23490;53.656;10.076;2023-02-16T12:52:34;99364.31;;;-145.95;97.69
37648;BME280;23490;53.656;10.076;2023-02-16T12:55:16;99389.09;;;-145.95;97.85
37648;BME280;23490;53.656;10.076;2023-02-16T12:57:50;99356.06;;;-145.95;98.60
37648;BME280;23490;53.656;10.076;2023-02-16T13:00:24;99335.41;;;-145.95;99.33
37648;BME280;23490;53.656;10.076;2023-02-16T13:03:01;99368.44;;;-145.95;99.20
37648;BME280;23490;53.656;10.076;2023-02-16T13:05:35;99413.88;;;-145.95;99.88
37648;BME280;23490;53.656;10.076;2023-02-16T13:08:11;99380.84;;;-145.95;100.00
37648;BME280;23490;53.656;10.076;2023-02-16T13:10:56;99372.56;;;-145.95;100.00
37648;BME280;23490;53.656;10.076;2023-02-16T13:13:26;99356.06;;;-145.95;100.00
37648;BME280;23490;53.656;10.076;2023-02-16T13:16:05;99399.41;;;-145.95;100.00
37648;BME280;23490;53.656;10.076;2023-02-16T13:18:35;99360.19;;;-145.95;100.00
37648;BME280;23490;53.656;10.076;2023-02-16T13:21:22;99384.97;;;-145.95;100.00
37648;BME280;23490;53.656;10.076;2023-02-16T13:26:34;99339.53;;;-145.95;100.00
37648;BME280;23490;53.656;10.076;2023-02-16T13:34:57;99376.69;;;-145.95;100.00